Time;durP1;ratioP1;P1;durP2;ratioP2;P2;SDS_P1;SDS_P2;PMS_P1;PMS_P2;Temp;Humidity;BMP_temperature;BMP_pressure;BME280_temperature;BME280_humidity;BME280_pressure;Samples;Min_cycle;Max_cycle;Signal;HPM_P1;HPM_P2
2021/08/23 00:01:37;;;;;;;16.10;10.18;;;;;;;18.04;82.88;100339.08;1780567;80;21334;-77
2021/08/23 00:04:42;;;;;;;18.65;10.28;;;;;;;18.05;82.87;100340.77;1781579;80;21343;-77
2021/08/23 00:07:48;;;;;;;19.15;11.12;;;;;;;18.07;82.80;100343.33;1780384;80;21386;-77
2021/08/23 00:10:56;;;;;;;17.50;10.23;;;;;;;18.07;82.76;100349.71;1779955;80;21186;-77
2021/08/23 00:14:03;;;;;;;19.60;10.28;;;;;;;18.09;82.76;100350.86;1781581;80;21883;-77
2021/08/23 00:17:09;;;;;;;15.18;9.63;;;;;;;18.09;82.84;100355.02;1780704;80;21295;-77
2021/08/23 00:20:21;;;;;;;19.98;11.12;;;;;;;18.10;82.86;100354.77;1747796;82;21185;-77
2021/08/23 00:23:26;;;;;;;16.05;10.65;;;;;;;18.11;82.80;100359.27;1750705;82;21208;-77
2021/08/23 00:26:35;;;;;;;17.57;11.43;;;;;;;18.08;82.87;100348.63;1730462;82;21208;-77
2021/08/23 00:29:40;;;;;;;16.93;10.85;;;;;;;18.09;82.89;100352.24;1761644;81;21233;-77
2021/08/23 00:32:47;;;;;;;15.65;9.78;;;;;;;18.08;82.89;100350.02;1746987;82;21740;-77
2021/08/23 00:35:53;;;;;;;17.07;10.08;;;;;;;18.06;82.89;100347.98;1779339;80;21366;-77
2021/08/23 00:39:01;;;;;;;16.52;10.65;;;;;;;18.04;82.94;100346.00;1776942;80;21764;-77
2021/08/23 00:42:07;;;;;;;18.40;10.63;;;;;;;18.02;82.96;100341.74;1777413;80;21934;-77
2021/08/23 00:45:15;;;;;;;22.22;10.60;;;;;;;18.00;83.00;100342.52;1777028;80;21548;-77
2021/08/23 00:48:23;;;;;;;18.37;10.30;;;;;;;17.98;82.95;100346.06;1777149;80;21347;-77
2021/08/23 00:51:29;;;;;;;22.37;10.50;;;;;;;17.95;83.00;100341.80;1778767;80;21886;-77
2021/08/23 00:54:34;;;;;;;18.07;10.38;;;;;;;17.93;83.09;100343.96;1778738;80;21307;-77
2021/08/23 00:57:40;;;;;;;20.25;10.43;;;;;;;17.93;83.12;100336.20;1777843;80;21890;-77
2021/08/23 01:00:47;;;;;;;19.73;10.80;;;;;;;17.93;83.15;100340.35;1778230;80;21806;-77
2021/08/23 01:04:16;;;;;;;21.12;10.40;;;;;;;17.90;83.09;100338.86;1778670;80;21248;-77
2021/08/23 01:07:23;;;;;;;24.10;10.63;;;;;;;17.90;83.06;100341.63;1779636;80;21299;-77
2021/08/23 01:10:38;;;;;;;18.37;10.55;;;;;;;17.85;83.06;100337.30;1778935;80;21300;-77
2021/08/23 01:13:48;;;;;;;15.60;10.65;;;;;;;17.82;83.11;100337.20;1777333;80;21311;-77
2021/08/23 01:16:54;;;;;;;22.42;11.95;;;;;;;17.79;83.12;100340.44;1778677;80;21302;-77
2021/08/23 01:20:04;;;;;;;16.80;10.98;;;;;;;17.75;83.10;100342.48;1778580;80;21295;-77
2021/08/23 01:23:09;;;;;;;18.17;11.53;;;;;;;17.66;83.17;100337.72;1779491;80;21239;-77
2021/08/23 01:26:15;;;;;;;18.87;12.23;;;;;;;17.55;83.42;100340.66;1777070;80;21777;-77
2021/08/23 01:29:27;;;;;;;19.92;12.40;;;;;;;17.49;83.65;100340.67;1729593;80;21315;-77
2021/08/23 01:32:33;;;;;;;23.38;12.15;;;;;;;17.44;83.78;100344.10;1692600;85;21263;-77
2021/08/23 01:35:39;;;;;;;19.52;11.03;;;;;;;17.37;83.88;100348.30;1714435;83;21181;-77
2021/08/23 01:38:44;;;;;;;21.15;11.15;;;;;;;17.33;83.96;100340.66;1721056;83;22523;-77
2021/08/23 01:41:50;;;;;;;14.83;9.35;;;;;;;17.24;84.13;100344.73;1712335;83;21375;-77
2021/08/23 01:44:56;;;;;;;19.65;10.28;;;;;;;17.18;84.38;100341.48;1713690;83;22022;-77
2021/08/23 01:48:00;;;;;;;17.37;9.98;;;;;;;17.12;84.53;100341.79;1721397;83;21220;-77
2021/08/23 01:51:05;;;;;;;23.10;10.03;;;;;;;17.06;84.71;100333.84;1713765;83;21311;-77
2021/08/23 01:54:11;;;;;;;19.52;10.30;;;;;;;17.04;84.82;100340.14;1722026;83;21294;-78
2021/08/23 01:57:24;;;;;;;21.75;10.70;;;;;;;17.01;84.94;100335.03;1713811;83;21201;-78
2021/08/23 02:00:30;;;;;;;21.82;10.40;;;;;;;16.99;85.02;100331.66;1721726;83;21334;-77
2021/08/23 02:03:35;;;;;;;19.80;9.98;;;;;;;16.98;85.16;100327.70;1712520;83;21828;-77
2021/08/23 02:06:41;;;;;;;16.32;11.40;;;;;;;16.98;85.27;100334.62;1713715;83;21820;-77
2021/08/23 02:09:48;;;;;;;20.37;11.35;;;;;;;16.95;85.33;100319.88;1721883;83;21183;-77
2021/08/23 02:12:54;;;;;;;19.07;10.10;;;;;;;16.93;85.32;100321.99;1713779;83;21315;-77
2021/08/23 02:16:00;;;;;;;20.25;11.00;;;;;;;16.89;85.25;100321.60;1720416;83;22054;-77
2021/08/23 02:19:05;;;;;;;21.60;10.70;;;;;;;16.83;85.35;100321.06;1712693;83;21217;-77
2021/08/23 02:22:11;;;;;;;19.37;10.48;;;;;;;16.80;85.50;100331.19;1721983;83;21283;-77
2021/08/23 02:25:21;;;;;;;19.92;10.98;;;;;;;16.74;85.71;100325.97;1713692;83;21311;-77
2021/08/23 02:28:24;;;;;;;21.93;11.20;;;;;;;16.69;85.90;100323.52;1722310;82;21330;-77
2021/08/23 02:31:30;;;;;;;16.15;10.65;;;;;;;16.63;85.93;100334.89;1743182;82;21308;-77
2021/08/23 02:34:35;;;;;;;22.70;10.23;;;;;;;16.54;86.05;100329.28;1741913;82;21295;-77
2021/08/23 02:37:41;;;;;;;15.58;9.48;;;;;;;16.46;86.38;100335.86;1743159;82;21197;-77
2021/08/23 02:40:48;;;;;;;15.95;9.33;;;;;;;16.37;86.58;100334.39;1743192;82;21189;-77
2021/08/23 02:43:54;;;;;;;21.95;9.73;;;;;;;16.31;86.77;100332.48;1743042;82;21387;-77
2021/08/23 02:46:58;;;;;;;19.02;9.25;;;;;;;16.27;87.09;100342.25;1743143;82;21193;-77
2021/08/23 02:50:04;;;;;;;16.52;9.43;;;;;;;16.23;87.31;100334.95;1741887;82;21237;-77
2021/08/23 02:53:10;;;;;;;19.12;9.53;;;;;;;16.22;87.43;100340.66;1770258;81;21161;-77
2021/08/23 02:56:16;;;;;;;15.48;9.48;;;;;;;16.20;87.53;100340.04;1770343;81;21181;-77
2021/08/23 02:59:22;;;;;;;23.98;9.63;;;;;;;16.20;87.72;100345.56;1769686;81;21339;-77
2021/08/23 03:02:27;;;;;;;23.45;9.95;;;;;;;16.19;87.91;100346.09;1770868;81;21244;-77
2021/08/23 03:05:32;;;;;;;15.80;10.08;;;;;;;16.21;87.91;100345.34;1770266;81;21193;-77
2021/08/23 03:08:39;;;;;;;19.42;10.58;;;;;;;16.24;87.94;100344.08;1770125;81;21331;-77
2021/08/23 03:11:46;;;;;;;17.15;10.78;;;;;;;16.28;87.98;100344.82;1769069;81;21303;-77
2021/08/23 03:14:51;;;;;;;20.10;10.03;;;;;;;16.34;87.91;100346.72;1769529;81;21987;-77
2021/08/23 03:17:56;;;;;;;25.08;11.22;;;;;;;16.42;87.64;100347.55;1769036;81;21284;-77
2021/08/23 03:21:02;;;;;;;16.82;9.98;;;;;;;16.50;87.30;100346.80;1769059;81;21311;-77
2021/08/23 03:24:08;;;;;;;19.57;11.35;;;;;;;16.56;86.89;100345.97;1768899;81;21193;-77
2021/08/23 03:27:13;;;;;;;16.20;10.68;;;;;;;16.61;86.49;100351.69;1770511;81;21193;-77
2021/08/23 03:30:20;;;;;;;19.30;10.32;;;;;;;16.66;86.15;100351.58;1766296;80;21189;-77
2021/08/23 03:33:26;;;;;;;18.67;11.05;;;;;;;16.69;85.92;100356.66;1802825;79;21299;-77
2021/08/23 03:36:32;;;;;;;17.95;9.83;;;;;;;16.73;85.74;100354.66;1802681;79;21347;-77
2021/08/23 03:39:37;;;;;;;20.05;11.50;;;;;;;16.80;85.47;100356.89;1802100;79;21494;-77
2021/08/23 03:42:43;;;;;;;17.62;10.98;;;;;;;16.85;85.23;100354.33;1801210;79;21958;-77
2021/08/23 03:45:49;;;;;;;18.65;10.40;;;;;;;16.91;84.94;100351.23;1801742;79;21335;-77
2021/08/23 03:48:54;;;;;;;20.48;10.48;;;;;;;16.98;84.72;100362.25;1802458;79;21295;-77
2021/08/23 03:51:59;;;;;;;21.87;11.03;;;;;;;17.06;84.54;100350.42;1802491;79;22367;-77
2021/08/23 03:55:05;;;;;;;22.55;10.95;;;;;;;17.19;84.23;100356.98;1802713;79;21141;-77
2021/08/23 03:58:11;;;;;;;23.85;10.72;;;;;;;17.27;83.77;100358.13;1801322;79;21165;-77
2021/08/23 04:01:16;;;;;;;22.70;10.55;;;;;;;17.37;83.23;100366.80;1801033;79;21237;-77
2021/08/23 04:04:22;;;;;;;19.45;11.18;;;;;;;17.49;82.88;100368.33;1801207;79;22565;-77
2021/08/23 04:07:28;;;;;;;26.25;12.00;;;;;;;17.59;82.35;100371.46;1802746;79;21613;-77
2021/08/23 04:10:33;;;;;;;14.45;8.95;;;;;;;17.69;82.08;100374.62;1801304;79;21252;-77
2021/08/23 04:13:39;;;;;;;20.15;11.65;;;;;;;17.84;81.40;100370.20;1802721;79;21229;-77
2021/08/23 04:16:44;;;;;;;26.52;10.93;;;;;;;17.96;80.91;100369.78;1801613;79;21331;-77
2021/08/23 04:19:51;;;;;;;19.23;11.00;;;;;;;18.09;80.26;100369.70;1802634;79;21161;-77
2021/08/23 04:22:56;;;;;;;21.30;10.43;;;;;;;18.20;79.87;100367.27;1802908;79;21628;-77
2021/08/23 04:26:02;;;;;;;25.60;11.40;;;;;;;18.32;79.52;100366.33;1802811;79;21177;-77
2021/08/23 04:29:06;;;;;;;17.00;9.73;;;;;;;18.48;78.80;100369.59;1802985;79;21150;-77
2021/08/23 04:32:12;;;;;;;22.10;10.65;;;;;;;18.59;78.03;100378.56;1787582;79;21199;-77
2021/08/23 04:35:17;;;;;;;19.90;9.78;;;;;;;18.72;77.61;100381.22;1779540;80;21284;-77
2021/08/23 04:38:23;;;;;;;16.12;8.93;;;;;;;18.86;76.62;100380.55;1779554;80;21185;-77
2021/08/23 04:41:29;;;;;;;19.35;9.58;;;;;;;18.97;76.07;100376.20;1778199;80;21181;-77
2021/08/23 04:44:35;;;;;;;18.70;9.00;;;;;;;19.09;75.35;100390.42;1777808;80;21327;-77
2021/08/23 04:47:40;;;;;;;14.90;8.18;;;;;;;19.25;74.65;100377.05;1778923;80;21331;-77
2021/08/23 04:50:46;;;;;;;13.43;7.45;;;;;;;19.39;73.29;100374.42;1778838;80;21394;-77
2021/08/23 04:53:51;;;;;;;13.53;6.95;;;;;;;19.52;72.02;100367.83;1779331;80;21308;-77
2021/08/23 04:56:56;;;;;;;11.97;6.20;;;;;;;19.62;70.92;100380.66;1779251;80;21347;-77
2021/08/23 05:00:01;;;;;;;16.62;6.85;;;;;;;19.72;70.47;100373.17;1779371;80;21284;-77
2021/08/23 05:03:09;;;;;;;14.55;6.35;;;;;;;19.80;69.96;100381.14;1779469;80;21295;-77
2021/08/23 05:06:15;;;;;;;12.13;6.65;;;;;;;19.86;68.77;100394.09;1779530;80;21174;-77
2021/08/23 05:09:20;;;;;;;10.38;5.40;;;;;;;19.95;68.35;100376.03;1779575;80;21292;-77
2021/08/23 05:12:25;;;;;;;10.53;6.03;;;;;;;20.06;67.97;100380.77;1779450;80;21288;-78
2021/08/23 05:15:32;;;;;;;9.75;6.05;;;;;;;20.13;67.39;100382.03;1779524;80;21335;-77
2021/08/23 05:18:37;;;;;;;15.85;5.53;;;;;;;20.23;67.26;100388.40;1779156;80;21284;-77
2021/08/23 05:21:43;;;;;;;13.88;5.97;;;;;;;20.36;66.74;100384.02;1776073;80;21263;-78
2021/08/23 05:24:48;;;;;;;16.23;4.87;;;;;;;20.45;66.66;100379.81;1779357;80;21292;-77
2021/08/23 05:27:53;;;;;;;10.03;5.80;;;;;;;20.55;66.49;100375.08;1779541;80;21339;-78
2021/08/23 05:30:59;;;;;;;6.42;4.62;;;;;;;20.66;65.79;100370.09;1778830;80;21767;-77
2021/08/23 05:34:04;;;;;;;11.00;5.45;;;;;;;20.77;65.65;100379.52;1801473;79;21840;-77
2021/08/23 05:37:11;;;;;;;9.45;4.95;;;;;;;20.86;65.00;100375.28;1799271;79;21165;-77
2021/08/23 05:40:19;;;;;;;10.40;5.30;;;;;;;20.99;64.68;100386.16;1787026;79;21169;-77
2021/08/23 05:43:25;;;;;;;13.50;4.65;;;;;;;21.13;64.09;100388.98;1787565;79;21236;-77
2021/08/23 05:46:29;;;;;;;11.80;4.90;;;;;;;21.22;63.48;100390.84;1782418;79;21272;-77
2021/08/23 05:49:35;;;;;;;6.92;4.75;;;;;;;21.26;62.83;100385.62;1792966;79;21158;-77
2021/08/23 05:52:40;;;;;;;8.05;4.92;;;;;;;21.40;63.33;100389.85;1786077;79;21181;-78
2021/08/23 05:55:46;;;;;;;6.47;4.10;;;;;;;21.53;62.72;100384.02;1788715;79;21232;-77
2021/08/23 05:58:45;;;;;;;6.95;4.45;;;;;;;21.69;62.06;100392.99;1784289;79;21462;-78
2021/08/23 06:01:52;;;;;;;6.47;4.00;;;;;;;21.83;61.84;100389.89;1782370;79;21753;-77
2021/08/23 06:04:58;;;;;;;11.70;3.92;;;;;;;21.97;61.87;100388.49;1792788;79;21162;-77
2021/08/23 06:08:06;;;;;;;7.95;4.05;;;;;;;22.15;60.87;100399.45;1786403;79;21201;-77
2021/08/23 06:11:11;;;;;;;7.97;3.98;;;;;;;22.26;60.22;100395.48;1781288;79;21343;-77
2021/08/23 06:14:17;;;;;;;9.50;4.47;;;;;;;22.33;60.33;100391.42;1784054;79;21316;-77
2021/08/23 06:17:24;;;;;;;8.73;3.95;;;;;;;22.41;59.76;100397.14;1783951;79;21185;-77
2021/08/23 06:20:31;;;;;;;5.97;3.70;;;;;;;22.52;58.67;100398.98;1744865;81;21665;-78
2021/08/23 06:23:37;;;;;;;5.58;3.27;;;;;;;22.63;57.54;100393.03;1782928;79;21272;-78
2021/08/23 06:26:43;;;;;;;6.35;4.03;;;;;;;22.70;57.36;100397.34;1786780;79;21161;-78
2021/08/23 06:29:49;;;;;;;5.40;3.80;;;;;;;22.80;57.08;100400.00;1783130;79;21272;-77
2021/08/23 06:32:53;;;;;;;6.97;3.52;;;;;;;22.83;55.68;100396.72;1779755;79;21314;-78
2021/08/23 06:35:59;;;;;;;7.25;3.37;;;;;;;22.84;55.39;100395.61;1786564;79;21764;-77
2021/08/23 06:39:05;;;;;;;4.47;3.15;;;;;;;22.90;55.33;100393.21;1788807;79;21278;-78
2021/08/23 06:42:11;;;;;;;6.67;3.52;;;;;;;22.94;54.97;100389.66;1787197;79;21867;-78
2021/08/23 06:45:18;;;;;;;5.00;2.92;;;;;;;22.98;54.57;100392.79;1781170;79;21724;-78
2021/08/23 06:48:23;;;;;;;5.62;3.37;;;;;;;23.09;54.41;100396.56;1786840;79;21207;-77
2021/08/23 06:51:29;;;;;;;4.20;2.70;;;;;;;23.18;53.33;100407.02;1789479;79;21274;-77
2021/08/23 06:54:36;;;;;;;5.22;2.75;;;;;;;23.21;53.40;100405.12;1790075;79;21282;-77
2021/08/23 06:57:41;;;;;;;6.90;2.90;;;;;;;23.31;52.72;100414.74;1793615;79;21218;-77
2021/08/23 07:00:47;;;;;;;3.70;2.42;;;;;;;23.40;53.84;100407.05;1794695;78;21889;-77
2021/08/23 07:03:54;;;;;;;3.95;2.55;;;;;;;23.48;52.11;100414.15;1787784;79;21315;-77
2021/08/23 07:06:59;;;;;;;7.30;2.72;;;;;;;23.47;52.89;100416.63;1786028;79;21272;-77
2021/08/23 07:10:09;;;;;;;5.15;2.62;;;;;;;23.51;51.51;100412.21;1788946;79;21816;-77
2021/08/23 07:13:15;;;;;;;4.83;2.55;;;;;;;23.55;51.34;100403.61;1789340;79;21317;-77
2021/08/23 07:16:21;;;;;;;6.67;2.40;;;;;;;23.61;51.11;100400.33;1786245;79;21251;-77
2021/08/23 07:19:29;;;;;;;4.60;2.72;;;;;;;23.66;50.98;100399.86;1792345;79;21852;-78
2021/08/23 07:22:38;;;;;;;5.47;2.50;;;;;;;23.75;50.20;100396.06;1792277;79;21263;-77
2021/08/23 07:25:45;;;;;;;3.90;2.37;;;;;;;23.81;50.39;100399.79;1786893;79;21291;-78
2021/08/23 07:28:53;;;;;;;5.35;2.30;;;;;;;23.87;49.54;100397.33;1793345;79;21246;-77
2021/08/23 07:31:58;;;;;;;4.85;2.65;;;;;;;23.92;50.12;100391.25;1793890;79;21574;-77
2021/08/23 07:35:05;;;;;;;5.08;2.60;;;;;;;24.04;49.49;100393.03;1786913;79;21169;-77
2021/08/23 07:38:12;;;;;;;4.97;2.42;;;;;;;24.11;49.36;100391.72;1734629;82;21347;-77
2021/08/23 07:41:17;;;;;;;5.40;2.55;;;;;;;24.16;49.05;100402.95;1770745;81;21304;-78
2021/08/23 07:44:23;;;;;;;4.30;2.42;;;;;;;24.20;48.92;100395.73;1732736;82;21304;-77
2021/08/23 07:47:30;;;;;;;4.50;2.27;;;;;;;24.22;47.75;100399.64;1802098;79;21267;-77
2021/08/23 07:50:41;;;;;;;4.83;2.02;;;;;;;24.19;47.70;100403.83;1753296;81;21300;-78
2021/08/23 07:53:48;;;;;;;5.12;2.15;;;;;;;24.16;48.07;100414.69;1783552;79;21339;-78
2021/08/23 07:56:54;;;;;;;3.85;2.20;;;;;;;24.16;47.31;100397.36;1779184;79;21177;-78
2021/08/23 08:00:02;;;;;;;4.15;1.90;;;;;;;24.16;47.08;100393.17;1752021;81;21229;-77
2021/08/23 08:03:07;;;;;;;4.33;2.15;;;;;;;24.19;46.21;100394.05;1764293;80;21206;-78
2021/08/23 08:06:13;;;;;;;4.92;1.65;;;;;;;24.23;45.96;100391.58;1780277;79;21221;-78
2021/08/23 08:09:20;;;;;;;3.90;1.70;;;;;;;24.30;46.47;100385.76;1783507;79;21312;-78
2021/08/23 08:12:26;;;;;;;4.35;2.02;;;;;;;24.42;45.76;100392.06;1783122;79;21236;-78
2021/08/23 08:15:31;;;;;;;4.10;1.70;;;;;;;24.52;45.62;100382.36;1781163;79;21284;-78
2021/08/23 08:18:37;;;;;;;3.25;1.87;;;;;;;24.62;45.42;100381.04;1784940;79;21335;-78
2021/08/23 08:21:43;;;;;;;5.47;2.12;;;;;;;24.73;45.14;100381.39;1775686;79;21886;-78
2021/08/23 08:24:50;;;;;;;3.20;2.10;;;;;;;24.85;45.22;100377.02;1780662;79;21176;-78
2021/08/23 08:27:55;;;;;;;5.80;2.40;;;;;;;24.95;44.78;100383.23;1780113;79;21275;-78
2021/08/23 08:31:02;;;;;;;6.35;1.60;;;;;;;24.96;43.97;100379.32;1783423;79;21303;-78
2021/08/23 08:34:07;;;;;;;1.95;1.70;;;;;;;25.00;44.51;100384.66;1777824;79;21291;-78
2021/08/23 08:37:14;;;;;;;7.95;2.10;;;;;;;25.01;43.94;100386.34;1780407;79;21252;-78
2021/08/23 08:40:19;;;;;;;2.72;1.55;;;;;;;25.03;43.74;100395.33;1781794;79;21304;-78
2021/08/23 08:43:24;;;;;;;4.30;1.60;;;;;;;25.00;42.99;100397.25;1785006;79;21688;-78
2021/08/23 08:46:30;;;;;;;2.17;1.35;;;;;;;24.97;42.47;100397.22;1774827;79;21805;-78
2021/08/23 08:49:36;;;;;;;3.15;1.67;;;;;;;24.96;42.15;100391.91;1784308;79;21331;-77
2021/08/23 08:52:42;;;;;;;2.20;1.32;;;;;;;24.97;42.74;100382.39;1783899;79;21632;-78
2021/08/23 08:55:48;;;;;;;3.05;1.77;;;;;;;24.96;43.12;100386.31;1782766;79;21782;-78
2021/08/23 08:58:54;;;;;;;4.72;2.12;;;;;;;24.99;43.92;100378.80;1781160;79;21169;-77
2021/08/23 09:02:00;;;;;;;3.17;1.92;;;;;;;25.05;43.04;100376.86;1781906;79;21304;-77
2021/08/23 09:05:05;;;;;;;4.85;1.82;;;;;;;25.05;42.97;100378.26;1786723;79;21193;-77
2021/08/23 09:08:11;;;;;;;4.45;1.87;;;;;;;25.07;43.32;100379.69;1792434;80;21288;-77
2021/08/23 09:11:23;;;;;;;5.00;1.82;;;;;;;25.10;42.44;100379.72;1779684;79;21303;-77
2021/08/23 09:14:28;;;;;;;5.60;1.80;;;;;;;25.07;42.12;100388.61;1776143;79;21312;-77
2021/08/23 09:17:34;;;;;;;4.00;1.60;;;;;;;25.05;41.01;100390.29;1778611;79;21228;-77
2021/08/23 09:20:44;;;;;;;2.87;1.50;;;;;;;24.98;40.62;100384.08;1782300;79;21288;-77
2021/08/23 09:23:52;;;;;;;2.90;1.62;;;;;;;24.98;40.72;100383.55;1780974;79;21299;-78
2021/08/23 09:26:58;;;;;;;3.62;1.80;;;;;;;24.96;40.56;100394.70;1781602;79;21252;-78
2021/08/23 09:30:11;;;;;;;1.72;1.40;;;;;;;24.94;40.78;100387.16;1774515;79;21221;-77
2021/08/23 09:33:15;;;;;;;3.60;1.70;;;;;;;24.93;40.84;100384.05;1778862;79;21867;-77
2021/08/23 09:36:25;;;;;;;4.22;1.75;;;;;;;24.95;40.65;100393.03;1789045;79;21820;-78
2021/08/23 09:39:34;;;;;;;2.75;1.40;;;;;;;24.92;40.43;100388.80;1783839;79;21271;-77
2021/08/23 09:42:39;;;;;;;5.67;1.80;;;;;;;24.89;39.69;100379.57;1771990;80;21248;-78
2021/08/23 09:45:47;;;;;;;3.98;1.77;;;;;;;24.89;40.45;100384.29;1782564;79;21704;-78
2021/08/23 09:49:09;;;;;;;3.45;1.70;;;;;;;24.94;40.55;100387.99;1775982;79;21292;-78
2021/08/23 09:52:22;;;;;;;3.98;1.80;;;;;;;25.04;40.19;100377.42;1776936;79;21287;-78
2021/08/23 09:55:24;;;;;;;6.17;1.70;;;;;;;25.19;40.02;100377.53;1771441;79;21205;-77
2021/08/23 09:58:31;;;;;;;5.83;1.52;;;;;;;25.35;39.21;100380.41;1781720;79;21165;-78
2021/08/23 10:01:40;;;;;;;3.08;1.70;;;;;;;25.44;39.09;100381.01;1782789;79;21785;-77
2021/08/23 10:04:44;;;;;;;3.40;1.62;;;;;;;25.50;38.78;100372.06;1784106;79;21895;-77
2021/08/23 10:07:51;;;;;;;2.45;1.30;;;;;;;25.55;38.72;100385.25;1798652;79;21730;-78
2021/08/23 10:10:59;;;;;;;4.30;1.62;;;;;;;25.61;38.32;100382.21;1807396;79;21295;-78
2021/08/23 10:14:06;;;;;;;3.77;1.30;;;;;;;25.58;38.13;100374.91;1808909;79;21792;-77
2021/08/23 10:17:10;;;;;;;6.10;1.87;;;;;;;25.55;38.11;100378.25;1801103;79;21232;-77
2021/08/23 10:20:20;;;;;;;1.90;1.40;;;;;;;25.45;38.45;100379.91;1778396;79;21276;-77
2021/08/23 10:23:25;;;;;;;3.15;1.70;;;;;;;25.37;38.25;100390.79;1771668;81;21371;-78
2021/08/23 10:26:30;;;;;;;6.22;1.75;;;;;;;25.31;38.97;100378.70;1770020;81;21295;-77
2021/08/23 10:29:49;;;;;;;3.47;1.80;;;;;;;25.38;39.04;100377.91;1777343;79;21314;-77
2021/08/23 10:32:55;;;;;;;2.40;1.50;;;;;;;25.48;38.56;100382.15;1771241;81;21299;-78
2021/08/23 10:36:01;;;;;;;5.17;1.80;;;;;;;25.60;37.68;100380.53;1769633;81;21268;-77
2021/08/23 10:39:10;;;;;;;4.58;1.50;;;;;;;25.64;37.30;100369.59;1768706;80;21851;-78
2021/08/23 10:42:21;;;;;;;6.70;1.80;;;;;;;25.61;37.40;100372.97;1775639;79;21241;-78
2021/08/23 10:45:28;;;;;;;2.52;1.77;;;;;;;25.56;37.31;100370.99;1776554;79;21318;-78
2021/08/23 10:48:33;;;;;;;4.17;1.75;;;;;;;25.53;37.23;100374.89;1785240;79;21264;-78
2021/08/23 10:51:43;;;;;;;3.20;1.70;;;;;;;25.52;37.26;100374.61;1801196;79;21358;-77
2021/08/23 10:54:51;;;;;;;5.92;2.12;;;;;;;25.55;37.21;100372.64;1802431;79;21173;-77
2021/08/23 10:57:56;;;;;;;2.33;1.32;;;;;;;25.54;37.28;100367.61;1777033;79;21319;-78
2021/08/23 11:01:01;;;;;;;3.58;1.98;;;;;;;25.55;36.80;100374.92;1776265;79;21938;-77
2021/08/23 11:04:14;;;;;;;5.10;1.90;;;;;;;25.55;36.36;100372.11;1784108;79;21271;-77
2021/08/23 11:07:19;;;;;;;4.10;1.27;;;;;;;25.52;36.78;100383.85;1783881;79;21279;-77
2021/08/23 11:10:32;;;;;;;2.05;1.65;;;;;;;25.51;36.52;100376.58;1752338;79;21365;-77
2021/08/23 11:13:39;;;;;;;2.60;1.52;;;;;;;25.53;36.29;100365.09;1776257;79;21265;-77
2021/08/23 11:16:43;;;;;;;2.67;1.35;;;;;;;25.54;36.36;100356.97;1742667;81;21827;-78
2021/08/23 11:19:50;;;;;;;3.52;1.90;;;;;;;25.57;37.00;100360.06;1791430;79;21795;-78
2021/08/23 11:23:07;;;;;;;1.75;1.50;;;;;;;25.65;36.43;100344.14;1755235;81;21177;-77
2021/08/23 11:26:13;;;;;;;5.78;1.50;;;;;;;25.76;36.08;100358.20;1734309;82;21323;-78
2021/08/23 11:29:20;;;;;;;4.50;1.90;;;;;;;25.74;36.40;100351.45;1771260;81;21184;-77
2021/08/23 11:32:25;;;;;;;2.10;1.80;;;;;;;25.72;36.25;100350.30;1782303;79;21812;-77
2021/08/23 11:35:30;;;;;;;5.40;1.95;;;;;;;25.72;36.59;100341.06;1802766;79;21225;-78
2021/08/23 11:38:37;;;;;;;3.00;1.67;;;;;;;25.78;36.21;100353.16;1801056;79;22702;-78
2021/08/23 11:41:42;;;;;;;5.40;1.80;;;;;;;25.81;36.47;100348.41;1805072;79;21280;-78
2021/08/23 11:44:48;;;;;;;5.08;2.08;;;;;;;25.84;36.44;100344.50;1771830;80;21168;-78
2021/08/23 11:47:56;;;;;;;5.47;1.90;;;;;;;25.87;36.47;100335.52;1731637;81;21304;-78
2021/08/23 11:51:03;;;;;;;5.37;2.05;;;;;;;25.91;36.41;100335.81;1773638;81;21863;-77
2021/08/23 11:54:10;;;;;;;3.77;1.92;;;;;;;25.92;35.56;100340.30;1804799;79;21861;-77
2021/08/23 11:57:16;;;;;;;3.58;1.85;;;;;;;25.85;36.12;100346.17;1788911;79;21279;-78
2021/08/23 12:00:24;;;;;;;4.92;2.25;;;;;;;25.81;36.19;100341.41;1735909;82;21843;-78
2021/08/23 12:03:31;;;;;;;4.53;1.80;;;;;;;25.79;35.88;100333.29;1707820;82;21284;-78
2021/08/23 12:06:43;;;;;;;2.52;1.47;;;;;;;25.85;36.19;100341.14;1745218;82;21292;-77
2021/08/23 12:09:48;;;;;;;4.70;1.60;;;;;;;25.89;35.99;100335.27;1743677;82;21818;-78
2021/08/23 12:12:56;;;;;;;8.53;2.20;;;;;;;25.89;35.74;100334.70;1774836;81;21347;-78
2021/08/23 12:16:06;;;;;;;9.20;2.40;;;;;;;25.90;35.74;100339.75;1744791;81;22049;-77
2021/08/23 12:19:15;;;;;;;;;;;;;;;25.87;35.64;100335.52;1749912;81;21293;-78
2021/08/23 12:22:21;;;;;;;5.25;2.30;;;;;;;25.91;36.31;100335.81;1737477;82;20249;-78
2021/08/23 12:25:33;;;;;;;3.30;1.90;;;;;;;25.97;35.90;100343.11;1704942;82;21226;-77
2021/08/23 12:28:38;;;;;;;5.92;2.35;;;;;;;25.99;35.63;100346.48;1743511;82;21275;-78
2021/08/23 12:31:46;;;;;;;7.20;1.95;;;;;;;25.97;35.66;100337.50;1735378;82;21335;-78
2021/08/23 12:34:57;;;;;;;3.98;2.25;;;;;;;25.96;36.17;100335.83;1732131;82;21145;-77
2021/08/23 12:38:02;;;;;;;3.85;2.22;;;;;;;25.98;35.91;100342.02;1739566;82;21306;-78
2021/08/23 12:41:08;;;;;;;4.22;1.90;;;;;;;25.95;36.15;100346.76;1730827;82;21310;-78
2021/08/23 12:44:14;;;;;;;4.45;1.80;;;;;;;25.92;36.47;100343.94;1732385;82;21811;-78
2021/08/23 12:47:21;;;;;;;4.45;1.90;;;;;;;25.93;36.00;100337.80;1731919;82;21330;-77
2021/08/23 12:50:29;;;;;;;7.30;2.20;;;;;;;25.92;36.23;100344.50;1727986;82;21307;-78
2021/08/23 12:53:35;;;;;;;2.87;1.90;;;;;;;25.97;35.84;100343.11;1728246;82;21934;-77
2021/08/23 12:56:40;;;;;;;4.05;1.92;;;;;;;26.03;35.63;100353.22;1729980;83;21882;-78
2021/08/23 12:59:45;;;;;;;3.72;1.95;;;;;;;26.04;35.52;100347.05;1728646;83;21196;-78
2021/08/23 13:02:51;;;;;;;3.98;2.30;;;;;;;26.02;36.05;100353.48;1696500;84;21860;-77
2021/08/23 13:05:56;;;;;;;3.10;1.87;;;;;;;26.02;35.54;100355.75;1704112;83;21296;-77
2021/08/23 13:09:02;;;;;;;4.62;2.00;;;;;;;26.02;35.78;100352.95;1699759;84;21224;-78
2021/08/23 13:12:09;;;;;;;4.75;2.10;;;;;;;26.03;35.66;100357.43;1707935;83;21300;-78
2021/08/23 13:15:18;;;;;;;4.12;2.75;;;;;;;25.93;35.79;100356.02;1700956;84;21293;-78
2021/08/23 13:18:24;;;;;;;4.83;1.80;;;;;;;25.86;35.72;100354.02;1725229;83;21812;-78
2021/08/23 13:21:29;;;;;;;3.10;2.22;;;;;;;25.84;36.23;100355.70;1726269;83;22277;-78
2021/08/23 13:24:37;;;;;;;4.97;2.20;;;;;;;25.89;35.85;100350.67;1726033;83;21946;-78
2021/08/23 13:27:41;;;;;;;8.33;1.72;;;;;;;25.93;36.05;100346.20;1726564;83;21184;-78
2021/08/23 13:30:47;;;;;;;4.45;2.00;;;;;;;25.94;35.95;100347.88;1724912;83;21315;-78
2021/08/23 13:33:52;;;;;;;4.17;1.90;;;;;;;25.94;35.68;100340.88;1731731;82;21535;-78
2021/08/23 13:36:57;;;;;;;4.87;2.10;;;;;;;25.94;35.92;100338.91;1730994;82;21224;-78
2021/08/23 13:40:03;;;;;;;4.83;2.22;;;;;;;25.92;35.93;100331.89;1711030;83;21290;-78
2021/08/23 13:43:09;;;;;;;3.65;1.90;;;;;;;25.89;36.84;100330.50;1735165;82;21200;-78
2021/08/23 13:46:14;;;;;;;6.90;1.82;;;;;;;25.89;36.41;100331.06;1733822;82;21224;-78
2021/08/23 13:49:20;;;;;;;4.22;2.20;;;;;;;25.82;36.11;100320.67;1734421;82;21173;-77
2021/08/23 13:52:25;;;;;;;5.47;1.98;;;;;;;25.73;36.00;100314.73;1748851;82;21299;-77
2021/08/23 13:55:30;;;;;;;6.45;1.92;;;;;;;25.68;36.09;100328.16;1752190;80;21322;-77
2021/08/23 13:58:34;;;;;;;3.77;2.25;;;;;;;25.66;35.66;100324.81;1738883;82;21850;-77
2021/08/23 14:01:33;;;;;;;5.45;2.27;;;;;;;25.63;35.88;100321.15;1738364;82;21200;-77
2021/08/23 14:04:37;;;;;;;3.77;2.10;;;;;;;25.59;36.24;100322.81;1734323;82;21310;-77
2021/08/23 14:07:40;;;;;;;3.27;2.08;;;;;;;25.54;35.74;100321.40;1744918;82;21264;-77
2021/08/23 14:10:45;;;;;;;4.72;2.30;;;;;;;25.49;36.06;100329.78;1793107;79;21330;-77
2021/08/23 14:13:51;;;;;;;13.28;2.20;;;;;;;25.43;35.97;100315.50;1793923;79;21950;-77
2021/08/23 14:16:59;;;;;;;7.42;2.42;;;;;;;25.41;36.20;100319.14;1791184;79;21434;-77
2021/08/23 14:20:04;;;;;;;4.55;2.47;;;;;;;25.37;35.62;100318.00;1795025;79;21279;-77